createdAt,value
2022-12-15T00:03:50.159Z,43.55
2022-12-15T00:08:10.626Z,43.85
2022-12-15T00:12:31.019Z,44.08
2022-12-15T00:16:51.609Z,43.42
2022-12-15T00:21:16.396Z,41.95
2022-12-15T00:25:37.105Z,42.15
2022-12-15T00:29:57.428Z,42.83
2022-12-15T00:34:18.080Z,42.00
2022-12-15T00:38:38.136Z,41.40
2022-12-15T00:42:40.191Z,38.42
2022-12-15T00:46:57.119Z,40.47
2022-12-15T00:50:59.624Z,42.37
2022-12-15T00:55:20.319Z,41.88
2022-12-15T00:59:41.153Z,45.90
2022-12-15T01:04:01.257Z,40.90
2022-12-15T01:08:21.805Z,38.90
2022-12-15T01:12:42.021Z,39.90
2022-12-15T01:17:02.738Z,43.97
2022-12-15T01:21:08.293Z,40.63
2022-12-15T01:25:11.609Z,44.67
2022-12-15T01:29:13.439Z,42.33
2022-12-15T01:33:16.894Z,45.58
2022-12-15T01:37:18.619Z,42.33
2022-12-15T01:41:20.832Z,44.40
2022-12-15T01:45:28.464Z,42.25
2022-12-15T01:49:32.394Z,43.67
2022-12-15T01:53:40.801Z,41.17
2022-12-15T01:57:43.151Z,40.17
2022-12-15T02:01:49.585Z,40.67
2022-12-15T02:05:53.011Z,41.00
2022-12-15T02:09:57.429Z,42.10
2022-12-15T02:14:07.789Z,44.42
2022-12-15T02:18:20.000Z,40.00
2022-12-15T02:22:46.209Z,44.08
2022-12-15T02:27:09.867Z,43.83
2022-12-15T02:31:38.876Z,40.65
2022-12-15T02:35:57.835Z,40.08
2022-12-15T02:40:00.433Z,40.88
2022-12-15T02:44:14.337Z,44.95
2022-12-15T02:48:33.333Z,45.33
2022-12-15T02:53:12.822Z,43.10
2022-12-15T02:57:32.902Z,41.72
2022-12-15T03:01:36.863Z,45.13
2022-12-15T03:05:38.921Z,45.25
2022-12-15T03:09:40.720Z,44.72
2022-12-15T03:13:42.761Z,46.58
2022-12-15T03:17:44.870Z,44.83
2022-12-15T03:21:47.023Z,47.45
2022-12-15T03:25:49.791Z,48.13
2022-12-15T03:29:51.958Z,47.20
2022-12-15T03:33:53.898Z,42.42
2022-12-15T03:37:55.865Z,42.60
2022-12-15T03:41:57.558Z,51.22
2022-12-15T03:45:59.533Z,44.17
2022-12-15T03:50:01.235Z,47.00
2022-12-15T03:54:03.425Z,44.63
2022-12-15T03:58:05.146Z,47.05
2022-12-15T04:02:09.760Z,43.00
2022-12-15T04:06:11.613Z,43.65
2022-12-15T04:10:13.834Z,43.35
2022-12-15T04:14:15.470Z,44.60
2022-12-15T04:18:17.648Z,44.05
2022-12-15T04:22:19.494Z,41.17
2022-12-15T04:26:40.187Z,46.90
2022-12-15T04:31:06.518Z,44.75
2022-12-15T04:35:27.878Z,41.20
2022-12-15T04:39:48.889Z,45.55
2022-12-15T04:44:09.497Z,45.90
2022-12-15T04:48:30.038Z,45.83
2022-12-15T04:52:50.729Z,43.60
2022-12-15T04:57:11.198Z,47.13
2022-12-15T05:01:31.848Z,45.42
2022-12-15T05:05:51.993Z,43.53
2022-12-15T05:10:15.095Z,44.20
2022-12-15T05:14:35.863Z,44.80
2022-12-15T05:18:56.803Z,45.42
2022-12-15T05:23:17.547Z,47.47
2022-12-15T05:27:37.961Z,46.20
2022-12-15T05:31:52.018Z,45.80
2022-12-15T05:35:57.580Z,43.75
2022-12-15T05:39:59.276Z,45.53
2022-12-15T05:44:01.682Z,50.30
2022-12-15T05:48:03.818Z,46.08
2022-12-15T05:52:06.390Z,47.13
2022-12-15T05:56:11.759Z,49.88
2022-12-15T06:00:13.980Z,48.60
2022-12-15T06:04:15.956Z,51.42
2022-12-15T06:08:18.094Z,51.30
2022-12-15T06:12:19.747Z,50.28
2022-12-15T06:16:23.777Z,51.08
2022-12-15T06:20:25.513Z,68.05
2022-12-15T06:24:27.522Z,76.15
2022-12-15T06:28:29.413Z,73.10
2022-12-15T06:32:34.694Z,59.05
2022-12-15T06:36:36.684Z,78.57
2022-12-15T06:40:39.651Z,80.78
2022-12-15T06:44:41.341Z,83.55
2022-12-15T06:48:45.783Z,65.05
2022-12-15T06:52:47.459Z,85.03
2022-12-15T06:56:49.761Z,106.68
2022-12-15T07:00:51.732Z,81.13
2022-12-15T07:04:53.758Z,103.10
2022-12-15T07:08:56.754Z,75.70
2022-12-15T07:12:58.605Z,93.82
2022-12-15T07:17:00.658Z,88.30
2022-12-15T07:21:06.055Z,91.38
2022-12-15T07:25:08.765Z,78.85
2022-12-15T07:29:11.940Z,61.63
2022-12-15T07:33:13.864Z,66.47
2022-12-15T07:37:16.332Z,69.50
2022-12-15T07:41:19.335Z,67.32
2022-12-15T07:45:21.902Z,66.72
2022-12-15T07:49:23.788Z,66.78
2022-12-15T07:53:27.877Z,62.63
2022-12-15T07:57:30.062Z,64.80
2022-12-15T08:01:32.564Z,59.70
2022-12-15T08:05:34.943Z,67.10
2022-12-15T08:09:37.568Z,57.17
2022-12-15T08:18:02.991Z,59.67
2022-12-15T08:22:04.718Z,56.05
2022-12-15T08:26:15.175Z,51.65
2022-12-15T08:30:18.424Z,44.22
2022-12-15T08:34:20.955Z,43.47
2022-12-15T08:38:22.581Z,44.25
2022-12-15T08:42:24.610Z,33.95
2022-12-15T08:46:33.468Z,35.65
2022-12-15T08:50:35.508Z,35.42
2022-12-15T08:54:37.303Z,41.47
2022-12-15T08:58:39.746Z,40.47
2022-12-15T09:02:41.479Z,44.85
2022-12-15T09:06:43.883Z,42.75
2022-12-15T09:10:52.344Z,41.17
2022-12-15T09:14:54.901Z,43.20
2022-12-15T09:18:59.250Z,39.35
2022-12-15T09:23:00.915Z,35.42
2022-12-15T09:27:03.615Z,30.77
2022-12-15T09:31:08.158Z,35.00
2022-12-15T09:35:10.220Z,39.47
2022-12-15T09:39:12.410Z,38.92
2022-12-15T09:43:34.457Z,40.75
2022-12-15T09:47:44.833Z,44.22
2022-12-15T09:51:55.976Z,41.17
2022-12-15T09:56:15.477Z,49.25
2022-12-15T10:00:29.807Z,49.10
2022-12-15T10:04:47.424Z,49.60
2022-12-15T10:08:54.780Z,54.40
2022-12-15T10:13:02.879Z,48.75
2022-12-15T10:17:21.549Z,58.65
2022-12-15T10:21:27.982Z,55.63
2022-12-15T10:25:33.104Z,56.78
2022-12-15T10:29:44.032Z,61.35
2022-12-15T10:33:54.573Z,47.72
2022-12-15T10:38:00.219Z,47.45
2022-12-15T10:42:17.690Z,49.40
2022-12-15T10:46:28.462Z,44.40
2022-12-15T10:50:30.781Z,47.20
2022-12-15T10:54:43.681Z,40.05
2022-12-15T10:58:50.071Z,40.38
2022-12-15T11:02:52.135Z,44.42
2022-12-15T11:07:03.805Z,40.17
2022-12-15T11:11:45.165Z,38.53
2022-12-15T11:15:56.353Z,44.97
2022-12-15T11:20:03.448Z,47.55
2022-12-15T11:24:35.357Z,55.77
2022-12-15T11:28:50.963Z,56.72
2022-12-15T11:32:57.844Z,57.80
2022-12-15T11:37:20.810Z,58.80
2022-12-15T11:42:01.560Z,55.20
2022-12-15T11:46:21.858Z,55.38
2022-12-15T11:50:31.301Z,59.17
2022-12-15T11:54:52.708Z,60.88
2022-12-15T11:59:36.280Z,65.13
2022-12-15T12:03:53.353Z,69.07
2022-12-15T12:08:10.277Z,65.68
2022-12-15T12:12:30.497Z,71.43
2022-12-15T12:16:56.267Z,74.50
2022-12-15T12:21:08.969Z,67.05
2022-12-15T12:25:15.554Z,69.18
2022-12-15T12:29:33.243Z,58.33
2022-12-15T12:33:48.617Z,59.60
2022-12-15T12:38:03.951Z,61.00
2022-12-15T12:42:16.852Z,67.00
2022-12-15T12:46:28.842Z,57.83
2022-12-15T12:50:33.443Z,62.55
2022-12-15T12:54:35.270Z,65.32
2022-12-15T12:58:37.080Z,63.70
2022-12-15T13:02:59.273Z,60.20
2022-12-15T13:11:53.806Z,61.97
2022-12-15T13:16:05.719Z,61.95
2022-12-15T13:20:22.608Z,63.67
2022-12-15T13:24:45.157Z,67.63
2022-12-15T13:28:50.786Z,65.65
2022-12-15T13:33:19.183Z,60.58
2022-12-15T13:37:48.917Z,65.97
2022-12-15T13:42:31.747Z,64.47
2022-12-15T13:46:23.247Z,62.47
2022-12-15T13:50:39.433Z,61.55
2022-12-15T13:54:46.444Z,146.25
2022-12-15T13:59:00.961Z,65.40
2022-12-15T14:03:10.291Z,58.28
2022-12-15T14:07:12.369Z,52.50
2022-12-15T14:11:51.429Z,63.95
2022-12-15T14:15:50.909Z,59.95
2022-12-15T14:19:52.991Z,61.53
2022-12-15T14:24:37.079Z,63.03
2022-12-15T14:28:31.877Z,57.58
2022-12-15T14:32:33.998Z,60.78
2022-12-15T14:36:36.599Z,55.42
2022-12-15T14:40:40.054Z,71.60
2022-12-15T14:44:49.721Z,65.30
2022-12-15T14:49:03.271Z,54.80
2022-12-15T14:53:16.757Z,53.38
2022-12-15T14:57:25.285Z,51.85
2022-12-15T15:01:33.321Z,55.75
2022-12-15T15:03:12.903Z,66.28
2022-12-15T15:05:40.479Z,58.10
2022-12-15T15:09:45.183Z,54.97
2022-12-15T15:13:47.513Z,47.40
2022-12-15T15:17:53.176Z,51.22
2022-12-15T15:21:55.342Z,48.97
2022-12-15T15:26:08.350Z,54.92
2022-12-15T15:30:22.148Z,50.55
2022-12-15T15:34:23.798Z,48.15
2022-12-15T15:38:33.818Z,49.53
2022-12-15T15:42:35.859Z,68.32
2022-12-15T15:46:44.879Z,47.90
2022-12-15T15:50:47.289Z,54.92
2022-12-15T15:54:49.549Z,63.10
2022-12-15T15:58:51.496Z,56.95
2022-12-15T16:02:53.446Z,47.72
2022-12-15T16:06:55.908Z,48.03
2022-12-15T16:10:58.067Z,57.72
2022-12-15T16:14:59.744Z,47.53
2022-12-15T16:19:01.762Z,47.72
2022-12-15T16:23:18.177Z,47.13
2022-12-15T16:27:20.141Z,47.53
2022-12-15T16:31:32.778Z,43.22
2022-12-15T16:35:38.406Z,47.17
2022-12-15T16:39:40.325Z,47.40
2022-12-15T16:43:48.166Z,49.28
2022-12-15T16:51:54.208Z,56.85
2022-12-15T16:56:02.916Z,50.20
2022-12-15T17:00:15.230Z,66.40
2022-12-15T17:04:17.407Z,54.40
2022-12-15T17:08:24.718Z,57.03
2022-12-15T17:12:26.720Z,59.17
2022-12-15T17:16:29.894Z,50.58
2022-12-15T17:20:32.596Z,53.85
2022-12-15T17:24:34.559Z,52.40
2022-12-15T17:28:40.706Z,56.30
2022-12-15T17:32:43.475Z,55.72
2022-12-15T17:36:45.352Z,53.30
2022-12-15T17:40:48.651Z,59.35
2022-12-15T17:44:51.780Z,48.30
2022-12-15T17:48:53.672Z,61.42
2022-12-15T17:52:55.905Z,51.55
2022-12-15T17:56:58.622Z,98.88
2022-12-15T18:01:00.629Z,59.67
2022-12-15T18:05:02.589Z,50.83
2022-12-15T18:09:05.918Z,68.32
2022-12-15T18:13:33.362Z,46.80
2022-12-15T18:17:37.293Z,52.25
2022-12-15T18:21:39.357Z,58.72
2022-12-15T18:25:42.288Z,61.70
2022-12-15T18:29:44.118Z,50.90
2022-12-15T18:33:46.570Z,48.53
2022-12-15T18:37:50.518Z,45.05
2022-12-15T18:41:54.854Z,61.83
2022-12-15T18:45:56.745Z,54.20
2022-12-15T18:49:58.664Z,46.75
2022-12-15T18:54:00.944Z,45.95
2022-12-15T18:58:02.663Z,51.28
2022-12-15T19:02:04.754Z,55.35
2022-12-15T19:06:34.922Z,65.93
2022-12-15T19:10:45.725Z,49.70
2022-12-15T19:14:49.961Z,55.42
2022-12-15T19:19:16.960Z,60.70
2022-12-15T19:23:19.099Z,57.70
2022-12-15T19:27:26.052Z,56.50
2022-12-15T19:31:27.897Z,53.85
2022-12-15T19:35:29.987Z,57.42
2022-12-15T19:39:35.006Z,61.00
2022-12-15T19:43:37.407Z,69.53
2022-12-15T19:47:39.416Z,51.25
2022-12-15T19:51:41.749Z,57.15
2022-12-15T19:55:44.444Z,56.42
2022-12-15T19:59:46.183Z,51.47
2022-12-15T20:03:51.129Z,51.53
2022-12-15T20:07:53.755Z,49.97
2022-12-15T20:11:55.774Z,53.08
2022-12-15T20:15:58.152Z,49.85
2022-12-15T20:19:59.820Z,52.55
2022-12-15T20:24:07.671Z,47.10
2022-12-15T20:28:24.896Z,45.75
2022-12-15T20:32:26.850Z,44.93
2022-12-15T20:36:30.627Z,47.80
2022-12-15T20:40:32.372Z,54.28
2022-12-15T20:44:34.507Z,45.60
2022-12-15T20:48:37.095Z,58.72
2022-12-15T20:52:39.525Z,49.85
2022-12-15T20:56:42.624Z,49.65
2022-12-15T21:00:46.150Z,52.05
2022-12-15T21:04:48.921Z,49.45
2022-12-15T21:08:50.804Z,45.92
2022-12-15T21:12:53.014Z,48.83
2022-12-15T21:16:56.356Z,49.53
2022-12-15T21:21:01.452Z,50.35
2022-12-15T21:25:04.350Z,51.72
2022-12-15T21:29:18.119Z,51.95
2022-12-15T21:33:20.619Z,55.30
2022-12-15T21:37:29.400Z,66.07
2022-12-15T21:41:31.683Z,63.15
2022-12-15T21:45:33.388Z,62.20
2022-12-15T21:49:35.438Z,62.40
2022-12-15T21:53:37.389Z,57.60
2022-12-15T21:57:39.129Z,57.97
2022-12-15T22:01:41.281Z,58.85
2022-12-15T22:05:43.487Z,59.00
2022-12-15T22:09:45.454Z,54.95
2022-12-15T22:13:48.394Z,50.75
2022-12-15T22:17:50.744Z,49.90
2022-12-15T22:21:52.928Z,51.13
2022-12-15T22:25:55.933Z,49.75
2022-12-15T22:29:57.896Z,54.50
2022-12-15T22:33:59.772Z,56.95
2022-12-15T22:38:01.910Z,52.10
2022-12-15T22:42:04.690Z,56.92
2022-12-15T22:46:12.775Z,57.78
2022-12-15T22:50:18.879Z,54.03
2022-12-15T22:54:23.782Z,51.67
2022-12-15T22:58:32.568Z,47.35
2022-12-15T23:02:39.067Z,52.72
2022-12-15T23:06:41.085Z,54.40
2022-12-15T23:11:01.811Z,62.00
2022-12-15T23:15:22.756Z,57.70
2022-12-15T23:19:24.515Z,56.42
2022-12-15T23:23:27.976Z,57.90
2022-12-15T23:27:29.706Z,57.85
2022-12-15T23:31:31.953Z,55.75
2022-12-15T23:35:33.933Z,54.78
2022-12-15T23:39:35.878Z,55.58
2022-12-15T23:43:37.783Z,55.85
2022-12-15T23:47:39.699Z,54.80
2022-12-15T23:51:41.460Z,52.75
2022-12-15T23:55:43.319Z,52.72
2022-12-15T23:59:45.624Z,51.45
